Portada
METAR-TAF:

METAR-TAF

Aeropuertos :

Aeropuerto Campo de Marte

São Paulo, São Paulo, Brasil

latitud: 23-31S, longitud: 046-38W, altitud: 722 m

Observación

El informe se hizo hace 12 horas y 26 minutos, a las 22:00 UTC
Viento 9 kt del este-sureste
Temperatura 22°C
Humedad 73%
Presión 1018 hPa
Visibilidad 10 km o más
Cielo nuboso a una altura de 1900 ft

METAR: SBMT 302200Z 12009KT 9999 BKN019 22/17 Q1018

Hora: 07:26 (10:26 UTC)


TAF: falta

Observaciones y pronósticos meteorológicos de más de 4000 aeropuertos (mensajes METAR y TAF).

Los puntos amarillos y rojos representan las estaciones disponibles.

Ponga el ratón en el punto deseado para ver el nombre de la estación.

Haga clic para ver las observaciones y los pronósticos meteorológicos.

Para cambiar el mapa : haga clic en los botones verdes con una cruz de color negro para hacer un zoom, en el botón verde con un guión para alejar o en las flechas verdes para mapas adyacentes.


METAR-TAF: